Home   Weather   USA   St. Croix Falls   Past weeks
Flag for USA

Past Weather in St. Croix Falls, Wisconsin, USA — Yesterday and Last 2 Weeks

Currently: 79 °F. Sunny. (Weather station: L O Simenstad Municipal Airport, USA). See more current weather

Past Weather in St. Croix Falls — Graph

°F

St. Croix Falls Temperature Yesterday

Maximum temperature yesterday: 85 °F (at 2:15 pm)
Minimum temperature yesterday: 59 °F (at 4:35 am)
Average temperature yesterday: 71 °F

High & Low Weather Summary for the Past Weeks

 TemperatureHumidityPressure
High89 °F (Jun 16, 5:55 pm)100% (Jun 10, 1:15 am)30.42 "Hg (Jun 10, 1:15 am)
Low45 °F (Jun 10, 5:35 am)25% (Jun 13, 5:35 pm)29.63 "Hg (Jun 16, 1:55 pm)
Average67 °F82%29.96 "Hg
* Reported Jun 9 6:35 pm — Jun 24 4:15 pm, St. Croix Falls. Weather by CustomWeather, © 2024

Note: Actual official high and low records may vary slightly from our data, if they occured in-between our weather recording intervals... More about our weather records

St. Croix Falls Weather History for the Previous 24 Hours

Scroll right to see more
 ConditionsComfort  
Time TempWeatherWind HumidityBarometerVisibility
4:15 pm
Mon, Jun 24
81 °FSunny.10 mph62%29.78 "Hg10 mi
3:55 pm83 °FSunny.15 mph59%29.77 "Hg10 mi
3:35 pm81 °FSunny.13 mph60%29.79 "Hg10 mi
2:55 pm83 °FScattered clouds.16 mph53%29.81 "Hg10 mi
2:15 pm85 °FSunny.10 mph51%29.81 "Hg10 mi
1:55 pm84 °FSunny.14 mph53%29.82 "Hg10 mi
1:15 pm83 °FSunny.14 mph54%29.85 "Hg10 mi
12:55 pm82 °FSunny.15 mph56%29.86 "Hg10 mi
12:15 pm80 °FScattered clouds.9 mph54%29.90 "Hg10 mi
11:55 am81 °FSunny.13 mph55%29.88 "Hg10 mi
11:15 am80 °FPartly sunny.12 mph59%29.90 "Hg10 mi
10:55 am78 °FOvercast.12 mph61%29.90 "Hg10 mi
10:35 am77 °FPartly sunny.9 mph63%29.91 "Hg10 mi
10:15 am77 °FScattered clouds.10 mph64%29.91 "Hg10 mi
9:55 am76 °FMostly cloudy.8 mph64%29.92 "Hg10 mi
9:35 am76 °FPartly sunny.9 mph65%29.93 "Hg10 mi
9:15 am74 °FScattered clouds.8 mph67%29.93 "Hg10 mi
8:55 am73 °FPartly sunny.7 mph68%29.94 "Hg10 mi
8:15 am71 °FSunny.8 mph72%29.91 "Hg10 mi
7:15 am67 °FSunny.6 mph82%29.91 "Hg10 mi
6:55 am66 °FSunny.6 mph90%29.92 "Hg10 mi
6:15 am63 °FSunny.5 mph99%29.92 "Hg10 mi
5:55 am61 °FSunny.6 mph100%29.91 "Hg10 mi
5:35 am61 °FSunny.5 mph100%29.91 "Hg10 mi
5:15 am61 °FClear.5 mph100%29.91 "Hg10 mi
4:55 am60 °FClear.3 mph100%29.92 "Hg10 mi
4:35 am59 °FClear.No wind100%29.92 "Hg10 mi
4:15 am60 °FClear.No wind100%29.92 "Hg10 mi
3:55 am60 °FClear.No wind100%29.92 "Hg10 mi
3:15 am59 °FClear.No wind100%29.93 "Hg10 mi
Weather by CustomWeather, © 2024

See weather overview